sensor_id;sensor_type;location;lat;lon;timestamp;P1;durP1;ratioP1;P2;durP2;ratioP2
703;SDS011;335;48.694;9.120;2023-12-28T00:01:06;1.40;;;1.30;;
703;SDS011;335;48.694;9.120;2023-12-28T00:03:32;1.33;;;1.33;;
703;SDS011;335;48.694;9.120;2023-12-28T00:05:57;1.57;;;1.53;;
703;SDS011;335;48.694;9.120;2023-12-28T00:08:22;1.90;;;1.20;;
703;SDS011;335;48.694;9.120;2023-12-28T00:10:48;1.50;;;1.40;;
703;SDS011;335;48.694;9.120;2023-12-28T00:13:13;1.60;;;1.60;;
703;SDS011;335;48.694;9.120;2023-12-28T00:15:38;2.00;;;1.90;;
703;SDS011;335;48.694;9.120;2023-12-28T00:18:04;1.80;;;1.70;;
703;SDS011;335;48.694;9.120;2023-12-28T00:20:29;1.80;;;1.70;;
703;SDS011;335;48.694;9.120;2023-12-28T00:22:54;1.60;;;1.50;;
703;SDS011;335;48.694;9.120;2023-12-28T00:25:20;2.00;;;1.90;;
703;SDS011;335;48.694;9.120;2023-12-28T00:27:45;1.53;;;1.43;;
703;SDS011;335;48.694;9.120;2023-12-28T00:30:11;1.50;;;1.40;;
703;SDS011;335;48.694;9.120;2023-12-28T00:32:36;1.40;;;1.40;;
703;SDS011;335;48.694;9.120;2023-12-28T00:35:02;3.20;;;1.90;;
703;SDS011;335;48.694;9.120;2023-12-28T00:37:27;1.77;;;1.67;;
703;SDS011;335;48.694;9.120;2023-12-28T00:39:52;1.50;;;1.40;;
703;SDS011;335;48.694;9.120;2023-12-28T00:42:18;1.50;;;1.40;;
703;SDS011;335;48.694;9.120;2023-12-28T00:44:44;1.83;;;1.73;;
703;SDS011;335;48.694;9.120;2023-12-28T00:47:09;1.57;;;1.30;;
703;SDS011;335;48.694;9.120;2023-12-28T00:49:36;1.23;;;1.23;;
703;SDS011;335;48.694;9.120;2023-12-28T00:52:01;1.20;;;1.20;;
703;SDS011;335;48.694;9.120;2023-12-28T00:54:27;1.47;;;1.47;;
703;SDS011;335;48.694;9.120;2023-12-28T00:56:52;1.40;;;1.30;;
703;SDS011;335;48.694;9.120;2023-12-28T00:59:17;1.70;;;1.60;;
703;SDS011;335;48.694;9.120;2023-12-28T01:01:43;1.70;;;1.60;;
703;SDS011;335;48.694;9.120;2023-12-28T01:04:08;1.93;;;1.80;;
703;SDS011;335;48.694;9.120;2023-12-28T01:06:34;1.70;;;1.60;;
703;SDS011;335;48.694;9.120;2023-12-28T01:08:59;2.10;;;2.00;;
703;SDS011;335;48.694;9.120;2023-12-28T01:11:24;1.73;;;1.63;;
703;SDS011;335;48.694;9.120;2023-12-28T01:13:51;1.53;;;1.47;;
703;SDS011;335;48.694;9.120;2023-12-28T01:16:17;1.13;;;1.10;;
703;SDS011;335;48.694;9.120;2023-12-28T01:18:42;1.87;;;1.77;;
703;SDS011;335;48.694;9.120;2023-12-28T01:21:08;1.90;;;1.80;;
703;SDS011;335;48.694;9.120;2023-12-28T01:23:33;2.70;;;1.40;;
703;SDS011;335;48.694;9.120;2023-12-28T01:25:59;1.40;;;1.30;;
703;SDS011;335;48.694;9.120;2023-12-28T01:28:24;1.57;;;1.47;;
703;SDS011;335;48.694;9.120;2023-12-28T01:30:50;1.70;;;1.60;;
703;SDS011;335;48.694;9.120;2023-12-28T01:33:15;1.50;;;1.50;;
703;SDS011;335;48.694;9.120;2023-12-28T01:35:41;1.90;;;1.80;;
703;SDS011;335;48.694;9.120;2023-12-28T01:38:06;1.60;;;1.50;;
703;SDS011;335;48.694;9.120;2023-12-28T01:40:32;1.53;;;1.40;;
703;SDS011;335;48.694;9.120;2023-12-28T01:42:57;1.70;;;1.60;;
703;SDS011;335;48.694;9.120;2023-12-28T01:45:23;1.20;;;1.20;;
703;SDS011;335;48.694;9.120;2023-12-28T01:47:48;1.53;;;1.43;;
703;SDS011;335;48.694;9.120;2023-12-28T01:50:14;1.63;;;1.57;;
703;SDS011;335;48.694;9.120;2023-12-28T01:52:39;1.67;;;1.57;;
703;SDS011;335;48.694;9.120;2023-12-28T01:55:05;2.07;;;1.47;;
703;SDS011;335;48.694;9.120;2023-12-28T01:57:32;1.70;;;1.60;;
703;SDS011;335;48.694;9.120;2023-12-28T01:59:57;2.33;;;1.33;;
703;SDS011;335;48.694;9.120;2023-12-28T02:02:26;1.70;;;1.60;;
703;SDS011;335;48.694;9.120;2023-12-28T02:04:51;1.70;;;1.60;;
703;SDS011;335;48.694;9.120;2023-12-28T02:07:17;1.60;;;1.50;;
703;SDS011;335;48.694;9.120;2023-12-28T02:09:43;2.00;;;1.90;;
703;SDS011;335;48.694;9.120;2023-12-28T02:12:08;1.37;;;1.27;;
703;SDS011;335;48.694;9.120;2023-12-28T02:14:33;2.17;;;1.90;;
703;SDS011;335;48.694;9.120;2023-12-28T02:19:39;1.20;;;1.20;;
703;SDS011;335;48.694;9.120;2023-12-28T02:22:07;1.60;;;1.50;;
703;SDS011;335;48.694;9.120;2023-12-28T02:24:48;1.60;;;1.50;;
703;SDS011;335;48.694;9.120;2023-12-28T02:27:16;1.53;;;1.43;;
703;SDS011;335;48.694;9.120;2023-12-28T02:29:41;1.20;;;1.20;;
703;SDS011;335;48.694;9.120;2023-12-28T02:32:06;2.20;;;1.23;;
703;SDS011;335;48.694;9.120;2023-12-28T02:34:34;1.23;;;1.20;;
703;SDS011;335;48.694;9.120;2023-12-28T02:37:02;1.70;;;1.60;;
703;SDS011;335;48.694;9.120;2023-12-28T02:39:28;3.17;;;1.93;;
703;SDS011;335;48.694;9.120;2023-12-28T02:41:54;1.77;;;1.20;;
703;SDS011;335;48.694;9.120;2023-12-28T02:44:20;1.43;;;1.30;;
703;SDS011;335;48.694;9.120;2023-12-28T02:46:46;4.27;;;1.60;;
703;SDS011;335;48.694;9.120;2023-12-28T02:49:11;2.07;;;1.97;;
703;SDS011;335;48.694;9.120;2023-12-28T02:51:37;1.40;;;1.40;;
703;SDS011;335;48.694;9.120;2023-12-28T02:54:02;1.10;;;1.10;;
703;SDS011;335;48.694;9.120;2023-12-28T02:56:27;1.93;;;1.30;;
703;SDS011;335;48.694;9.120;2023-12-28T02:58:53;1.60;;;1.50;;
703;SDS011;335;48.694;9.120;2023-12-28T03:01:18;1.40;;;1.33;;
703;SDS011;335;48.694;9.120;2023-12-28T03:03:43;1.50;;;1.40;;
703;SDS011;335;48.694;9.120;2023-12-28T03:06:09;1.00;;;1.00;;
703;SDS011;335;48.694;9.120;2023-12-28T03:08:34;1.30;;;1.30;;
703;SDS011;335;48.694;9.120;2023-12-28T03:10:59;1.50;;;1.40;;
703;SDS011;335;48.694;9.120;2023-12-28T03:13:25;1.53;;;1.43;;
703;SDS011;335;48.694;9.120;2023-12-28T03:15:50;1.27;;;1.27;;
703;SDS011;335;48.694;9.120;2023-12-28T03:18:15;1.37;;;1.37;;
703;SDS011;335;48.694;9.120;2023-12-28T03:20:41;1.27;;;1.27;;
703;SDS011;335;48.694;9.120;2023-12-28T03:23:06;3.30;;;1.53;;
703;SDS011;335;48.694;9.120;2023-12-28T03:25:31;1.40;;;1.30;;
703;SDS011;335;48.694;9.120;2023-12-28T03:27:57;1.73;;;1.63;;
703;SDS011;335;48.694;9.120;2023-12-28T03:30:22;3.20;;;1.70;;
703;SDS011;335;48.694;9.120;2023-12-28T03:32:47;1.10;;;1.10;;
703;SDS011;335;48.694;9.120;2023-12-28T03:35:13;1.53;;;1.20;;
703;SDS011;335;48.694;9.120;2023-12-28T03:37:38;1.03;;;1.03;;
703;SDS011;335;48.694;9.120;2023-12-28T03:40:03;1.47;;;1.33;;
703;SDS011;335;48.694;9.120;2023-12-28T03:42:29;1.50;;;1.30;;
703;SDS011;335;48.694;9.120;2023-12-28T03:44:55;1.63;;;1.53;;
703;SDS011;335;48.694;9.120;2023-12-28T03:47:20;1.00;;;0.97;;
703;SDS011;335;48.694;9.120;2023-12-28T03:49:45;1.53;;;1.20;;
703;SDS011;335;48.694;9.120;2023-12-28T03:52:11;1.03;;;1.03;;
703;SDS011;335;48.694;9.120;2023-12-28T03:54:36;1.00;;;0.90;;
703;SDS011;335;48.694;9.120;2023-12-28T03:57:01;1.43;;;1.40;;
703;SDS011;335;48.694;9.120;2023-12-28T03:59:27;1.47;;;1.37;;
703;SDS011;335;48.694;9.120;2023-12-28T04:01:52;3.67;;;1.53;;
703;SDS011;335;48.694;9.120;2023-12-28T04:04:17;2.70;;;1.20;;
703;SDS011;335;48.694;9.120;2023-12-28T04:06:43;1.13;;;1.13;;
703;SDS011;335;48.694;9.120;2023-12-28T04:09:10;1.40;;;1.30;;
703;SDS011;335;48.694;9.120;2023-12-28T04:11:36;1.20;;;1.17;;
703;SDS011;335;48.694;9.120;2023-12-28T04:14:02;1.70;;;1.27;;
703;SDS011;335;48.694;9.120;2023-12-28T04:16:28;1.57;;;1.47;;
703;SDS011;335;48.694;9.120;2023-12-28T04:18:53;1.17;;;1.17;;
703;SDS011;335;48.694;9.120;2023-12-28T04:21:18;1.17;;;1.17;;
703;SDS011;335;48.694;9.120;2023-12-28T04:23:44;1.60;;;1.50;;
703;SDS011;335;48.694;9.120;2023-12-28T04:26:09;1.17;;;1.17;;
703;SDS011;335;48.694;9.120;2023-12-28T04:28:35;1.23;;;1.23;;
703;SDS011;335;48.694;9.120;2023-12-28T04:31:04;1.23;;;1.23;;
703;SDS011;335;48.694;9.120;2023-12-28T04:33:29;0.90;;;0.90;;
703;SDS011;335;48.694;9.120;2023-12-28T04:35:55;1.23;;;1.13;;
703;SDS011;335;48.694;9.120;2023-12-28T04:38:21;1.17;;;1.10;;
703;SDS011;335;48.694;9.120;2023-12-28T04:40:46;1.77;;;1.17;;
703;SDS011;335;48.694;9.120;2023-12-28T04:43:12;0.93;;;0.93;;
703;SDS011;335;48.694;9.120;2023-12-28T04:45:37;0.93;;;0.93;;
703;SDS011;335;48.694;9.120;2023-12-28T04:48:03;1.40;;;1.30;;
703;SDS011;335;48.694;9.120;2023-12-28T04:50:28;1.20;;;1.10;;
703;SDS011;335;48.694;9.120;2023-12-28T04:52:54;1.07;;;1.07;;
703;SDS011;335;48.694;9.120;2023-12-28T04:55:20;1.60;;;1.50;;
703;SDS011;335;48.694;9.120;2023-12-28T04:57:46;1.03;;;1.03;;
703;SDS011;335;48.694;9.120;2023-12-28T05:00:11;1.50;;;1.40;;
703;SDS011;335;48.694;9.120;2023-12-28T05:02:37;3.23;;;1.40;;
703;SDS011;335;48.694;9.120;2023-12-28T05:05:03;1.07;;;1.07;;
703;SDS011;335;48.694;9.120;2023-12-28T05:07:28;1.03;;;1.03;;
703;SDS011;335;48.694;9.120;2023-12-28T05:09:53;1.27;;;1.20;;
703;SDS011;335;48.694;9.120;2023-12-28T05:12:19;1.30;;;1.30;;
703;SDS011;335;48.694;9.120;2023-12-28T05:14:44;1.67;;;1.57;;
703;SDS011;335;48.694;9.120;2023-12-28T05:17:09;1.30;;;1.30;;
703;SDS011;335;48.694;9.120;2023-12-28T05:19:35;0.80;;;0.80;;
703;SDS011;335;48.694;9.120;2023-12-28T05:22:00;0.90;;;0.90;;
703;SDS011;335;48.694;9.120;2023-12-28T05:24:31;1.20;;;1.20;;
703;SDS011;335;48.694;9.120;2023-12-28T05:26:57;1.47;;;1.37;;
703;SDS011;335;48.694;9.120;2023-12-28T05:29:22;1.40;;;1.30;;
703;SDS011;335;48.694;9.120;2023-12-28T05:31:47;1.20;;;1.20;;
703;SDS011;335;48.694;9.120;2023-12-28T05:34:13;1.90;;;1.77;;
703;SDS011;335;48.694;9.120;2023-12-28T05:36:38;1.30;;;1.20;;
703;SDS011;335;48.694;9.120;2023-12-28T05:39:05;2.50;;;1.47;;
703;SDS011;335;48.694;9.120;2023-12-28T05:41:31;1.47;;;1.10;;
703;SDS011;335;48.694;9.120;2023-12-28T05:43:56;0.90;;;0.80;;
703;SDS011;335;48.694;9.120;2023-12-28T05:46:21;1.47;;;1.37;;
703;SDS011;335;48.694;9.120;2023-12-28T05:48:47;1.73;;;1.00;;
703;SDS011;335;48.694;9.120;2023-12-28T05:51:12;1.53;;;1.43;;
703;SDS011;335;48.694;9.120;2023-12-28T05:53:38;1.27;;;1.17;;
703;SDS011;335;48.694;9.120;2023-12-28T05:56:03;1.13;;;1.03;;
703;SDS011;335;48.694;9.120;2023-12-28T05:58:29;1.50;;;1.40;;
703;SDS011;335;48.694;9.120;2023-12-28T06:00:54;0.90;;;0.90;;
703;SDS011;335;48.694;9.120;2023-12-28T06:03:20;1.23;;;1.17;;
703;SDS011;335;48.694;9.120;2023-12-28T06:05:45;1.53;;;1.50;;
703;SDS011;335;48.694;9.120;2023-12-28T06:08:10;1.20;;;1.10;;
703;SDS011;335;48.694;9.120;2023-12-28T06:10:36;0.97;;;0.97;;
703;SDS011;335;48.694;9.120;2023-12-28T06:13:01;1.20;;;1.17;;
703;SDS011;335;48.694;9.120;2023-12-28T06:15:26;0.87;;;0.87;;
703;SDS011;335;48.694;9.120;2023-12-28T06:17:52;1.67;;;1.57;;
703;SDS011;335;48.694;9.120;2023-12-28T06:20:17;1.50;;;1.13;;
703;SDS011;335;48.694;9.120;2023-12-28T06:22:42;0.87;;;0.87;;
703;SDS011;335;48.694;9.120;2023-12-28T06:25:08;1.10;;;1.10;;
703;SDS011;335;48.694;9.120;2023-12-28T06:27:36;1.20;;;1.00;;
703;SDS011;335;48.694;9.120;2023-12-28T06:30:01;1.20;;;1.07;;
703;SDS011;335;48.694;9.120;2023-12-28T06:32:26;1.30;;;1.20;;
703;SDS011;335;48.694;9.120;2023-12-28T06:34:52;1.23;;;1.23;;
703;SDS011;335;48.694;9.120;2023-12-28T06:37:17;1.27;;;1.07;;
703;SDS011;335;48.694;9.120;2023-12-28T06:39:42;1.20;;;1.20;;
703;SDS011;335;48.694;9.120;2023-12-28T06:42:07;1.10;;;1.00;;
703;SDS011;335;48.694;9.120;2023-12-28T06:44:33;1.40;;;1.40;;
703;SDS011;335;48.694;9.120;2023-12-28T06:46:59;1.40;;;1.30;;
703;SDS011;335;48.694;9.120;2023-12-28T06:49:24;1.00;;;1.00;;
703;SDS011;335;48.694;9.120;2023-12-28T06:51:50;1.23;;;1.23;;
703;SDS011;335;48.694;9.120;2023-12-28T06:54:15;1.10;;;1.00;;
703;SDS011;335;48.694;9.120;2023-12-28T06:56:41;2.50;;;1.67;;
703;SDS011;335;48.694;9.120;2023-12-28T06:59:06;1.27;;;1.27;;
703;SDS011;335;48.694;9.120;2023-12-28T07:01:32;4.73;;;1.57;;
703;SDS011;335;48.694;9.120;2023-12-28T07:03:57;1.43;;;1.33;;
703;SDS011;335;48.694;9.120;2023-12-28T07:06:24;1.53;;;1.50;;
703;SDS011;335;48.694;9.120;2023-12-28T07:08:50;1.20;;;1.20;;
703;SDS011;335;48.694;9.120;2023-12-28T07:11:15;1.73;;;1.63;;
703;SDS011;335;48.694;9.120;2023-12-28T07:13:40;1.60;;;1.60;;
703;SDS011;335;48.694;9.120;2023-12-28T07:16:06;1.47;;;1.47;;
703;SDS011;335;48.694;9.120;2023-12-28T07:18:32;1.57;;;1.47;;
703;SDS011;335;48.694;9.120;2023-12-28T07:20:57;1.63;;;1.53;;
703;SDS011;335;48.694;9.120;2023-12-28T07:23:23;1.70;;;1.70;;
703;SDS011;335;48.694;9.120;2023-12-28T07:25:48;1.67;;;1.57;;
703;SDS011;335;48.694;9.120;2023-12-28T07:28:13;2.00;;;1.63;;
703;SDS011;335;48.694;9.120;2023-12-28T07:30:39;1.53;;;1.43;;
703;SDS011;335;48.694;9.120;2023-12-28T07:33:04;1.40;;;1.40;;
703;SDS011;335;48.694;9.120;2023-12-28T07:35:30;1.30;;;1.30;;
703;SDS011;335;48.694;9.120;2023-12-28T07:37:55;2.33;;;2.13;;
703;SDS011;335;48.694;9.120;2023-12-28T07:40:20;1.57;;;1.47;;
703;SDS011;335;48.694;9.120;2023-12-28T07:42:46;1.33;;;1.33;;
703;SDS011;335;48.694;9.120;2023-12-28T07:45:11;2.20;;;2.00;;
703;SDS011;335;48.694;9.120;2023-12-28T07:47:36;1.63;;;1.53;;
703;SDS011;335;48.694;9.120;2023-12-28T07:50:02;2.00;;;1.90;;
703;SDS011;335;48.694;9.120;2023-12-28T07:52:27;1.40;;;1.30;;
703;SDS011;335;48.694;9.120;2023-12-28T07:54:53;1.53;;;1.53;;
703;SDS011;335;48.694;9.120;2023-12-28T07:57:18;1.53;;;1.43;;
703;SDS011;335;48.694;9.120;2023-12-28T07:59:44;3.23;;;1.40;;
703;SDS011;335;48.694;9.120;2023-12-28T08:02:09;4.70;;;1.73;;
703;SDS011;335;48.694;9.120;2023-12-28T08:04:34;1.57;;;1.47;;
703;SDS011;335;48.694;9.120;2023-12-28T08:07:00;1.40;;;1.30;;
703;SDS011;335;48.694;9.120;2023-12-28T08:09:25;1.50;;;1.50;;
703;SDS011;335;48.694;9.120;2023-12-28T08:11:51;1.20;;;1.20;;
703;SDS011;335;48.694;9.120;2023-12-28T08:14:17;1.37;;;1.37;;
703;SDS011;335;48.694;9.120;2023-12-28T08:16:42;1.43;;;1.30;;
703;SDS011;335;48.694;9.120;2023-12-28T08:19:07;1.77;;;1.60;;
703;SDS011;335;48.694;9.120;2023-12-28T08:21:33;1.90;;;1.80;;
703;SDS011;335;48.694;9.120;2023-12-28T08:23:58;3.33;;;1.60;;
703;SDS011;335;48.694;9.120;2023-12-28T08:26:24;1.53;;;1.53;;
703;SDS011;335;48.694;9.120;2023-12-28T08:28:49;1.20;;;1.20;;
703;SDS011;335;48.694;9.120;2023-12-28T08:31:14;2.20;;;2.03;;
703;SDS011;335;48.694;9.120;2023-12-28T08:33:39;1.77;;;1.67;;
703;SDS011;335;48.694;9.120;2023-12-28T08:36:06;1.43;;;1.43;;
703;SDS011;335;48.694;9.120;2023-12-28T08:38:32;1.50;;;1.50;;
703;SDS011;335;48.694;9.120;2023-12-28T08:40:57;1.63;;;1.53;;
703;SDS011;335;48.694;9.120;2023-12-28T08:43:22;1.50;;;1.50;;
703;SDS011;335;48.694;9.120;2023-12-28T08:45:48;2.13;;;1.90;;
703;SDS011;335;48.694;9.120;2023-12-28T08:48:13;1.33;;;1.23;;
703;SDS011;335;48.694;9.120;2023-12-28T08:50:38;1.53;;;1.43;;
703;SDS011;335;48.694;9.120;2023-12-28T08:53:04;1.40;;;1.30;;
703;SDS011;335;48.694;9.120;2023-12-28T08:55:29;1.80;;;1.70;;
703;SDS011;335;48.694;9.120;2023-12-28T08:57:54;2.03;;;1.43;;
703;SDS011;335;48.694;9.120;2023-12-28T09:00:20;1.40;;;1.40;;
703;SDS011;335;48.694;9.120;2023-12-28T09:02:45;1.23;;;1.20;;
703;SDS011;335;48.694;9.120;2023-12-28T09:05:10;1.30;;;1.30;;
703;SDS011;335;48.694;9.120;2023-12-28T09:07:36;1.60;;;1.50;;
703;SDS011;335;48.694;9.120;2023-12-28T09:10:07;2.93;;;1.47;;
703;SDS011;335;48.694;9.120;2023-12-28T09:12:34;2.20;;;2.10;;
703;SDS011;335;48.694;9.120;2023-12-28T09:14:59;3.13;;;2.00;;
703;SDS011;335;48.694;9.120;2023-12-28T09:17:24;1.90;;;1.80;;
703;SDS011;335;48.694;9.120;2023-12-28T09:19:50;1.83;;;1.73;;
703;SDS011;335;48.694;9.120;2023-12-28T09:22:15;2.03;;;1.93;;
703;SDS011;335;48.694;9.120;2023-12-28T09:24:40;3.07;;;2.87;;
703;SDS011;335;48.694;9.120;2023-12-28T09:27:06;11.23;;;6.90;;
703;SDS011;335;48.694;9.120;2023-12-28T09:29:31;12.47;;;8.70;;
703;SDS011;335;48.694;9.120;2023-12-28T09:31:56;5.80;;;4.00;;
703;SDS011;335;48.694;9.120;2023-12-28T09:34:22;2.00;;;1.90;;
703;SDS011;335;48.694;9.120;2023-12-28T09:36:47;1.50;;;1.40;;
703;SDS011;335;48.694;9.120;2023-12-28T09:39:12;1.60;;;1.50;;
703;SDS011;335;48.694;9.120;2023-12-28T09:41:39;1.43;;;1.43;;
703;SDS011;335;48.694;9.120;2023-12-28T09:44:09;1.60;;;1.50;;
703;SDS011;335;48.694;9.120;2023-12-28T09:46:36;1.93;;;1.83;;
703;SDS011;335;48.694;9.120;2023-12-28T09:49:03;1.57;;;1.47;;
703;SDS011;335;48.694;9.120;2023-12-28T09:51:29;4.10;;;3.17;;
703;SDS011;335;48.694;9.120;2023-12-28T09:53:55;2.00;;;1.90;;
703;SDS011;335;48.694;9.120;2023-12-28T09:56:21;2.07;;;1.90;;
703;SDS011;335;48.694;9.120;2023-12-28T09:58:46;1.87;;;1.73;;
703;SDS011;335;48.694;9.120;2023-12-28T10:01:15;1.70;;;1.60;;
703;SDS011;335;48.694;9.120;2023-12-28T10:03:42;1.60;;;1.50;;
703;SDS011;335;48.694;9.120;2023-12-28T10:06:07;1.70;;;1.60;;
703;SDS011;335;48.694;9.120;2023-12-28T10:08:32;1.37;;;1.07;;
703;SDS011;335;48.694;9.120;2023-12-28T10:10:58;1.07;;;1.07;;
703;SDS011;335;48.694;9.120;2023-12-28T10:13:25;3.10;;;1.73;;
703;SDS011;335;48.694;9.120;2023-12-28T10:15:50;1.40;;;1.30;;
703;SDS011;335;48.694;9.120;2023-12-28T10:18:18;1.50;;;1.40;;
703;SDS011;335;48.694;9.120;2023-12-28T10:20:48;1.60;;;1.53;;
703;SDS011;335;48.694;9.120;2023-12-28T10:23:16;1.50;;;1.50;;
703;SDS011;335;48.694;9.120;2023-12-28T10:25:42;1.50;;;1.50;;
703;SDS011;335;48.694;9.120;2023-12-28T10:28:07;1.93;;;1.83;;
703;SDS011;335;48.694;9.120;2023-12-28T10:30:33;1.27;;;1.27;;
703;SDS011;335;48.694;9.120;2023-12-28T10:32:58;1.90;;;1.40;;
703;SDS011;335;48.694;9.120;2023-12-28T10:35:23;1.60;;;1.50;;
703;SDS011;335;48.694;9.120;2023-12-28T10:37:49;1.20;;;1.10;;
703;SDS011;335;48.694;9.120;2023-12-28T10:40:18;1.57;;;1.50;;
703;SDS011;335;48.694;9.120;2023-12-28T10:42:57;1.87;;;1.30;;
703;SDS011;335;48.694;9.120;2023-12-28T10:45:26;1.20;;;1.10;;
703;SDS011;335;48.694;9.120;2023-12-28T10:48:04;1.13;;;1.13;;
703;SDS011;335;48.694;9.120;2023-12-28T10:50:44;1.30;;;1.30;;
703;SDS011;335;48.694;9.120;2023-12-28T10:58:47;1.47;;;1.37;;
703;SDS011;335;48.694;9.120;2023-12-28T11:01:25;1.30;;;1.30;;
703;SDS011;335;48.694;9.120;2023-12-28T11:04:02;2.00;;;1.80;;
703;SDS011;335;48.694;9.120;2023-12-28T11:06:30;1.70;;;1.60;;
703;SDS011;335;48.694;9.120;2023-12-28T11:08:56;1.33;;;1.20;;
703;SDS011;335;48.694;9.120;2023-12-28T11:11:23;1.53;;;1.13;;
703;SDS011;335;48.694;9.120;2023-12-28T11:13:48;1.30;;;1.30;;
703;SDS011;335;48.694;9.120;2023-12-28T11:16:16;0.93;;;0.93;;
703;SDS011;335;48.694;9.120;2023-12-28T11:18:42;0.93;;;0.77;;
703;SDS011;335;48.694;9.120;2023-12-28T11:21:07;1.37;;;1.30;;
703;SDS011;335;48.694;9.120;2023-12-28T11:23:33;1.50;;;1.40;;
703;SDS011;335;48.694;9.120;2023-12-28T11:25:59;0.70;;;0.70;;
703;SDS011;335;48.694;9.120;2023-12-28T11:28:24;1.20;;;1.10;;
703;SDS011;335;48.694;9.120;2023-12-28T11:30:50;0.70;;;0.70;;
703;SDS011;335;48.694;9.120;2023-12-28T11:33:17;0.93;;;0.93;;
703;SDS011;335;48.694;9.120;2023-12-28T11:35:42;1.30;;;1.20;;
703;SDS011;335;48.694;9.120;2023-12-28T11:38:08;1.10;;;1.00;;
703;SDS011;335;48.694;9.120;2023-12-28T11:40:41;0.80;;;0.80;;
703;SDS011;335;48.694;9.120;2023-12-28T11:43:20;1.17;;;0.70;;
703;SDS011;335;48.694;9.120;2023-12-28T11:45:46;0.90;;;0.83;;
703;SDS011;335;48.694;9.120;2023-12-28T11:48:21;0.97;;;0.97;;
703;SDS011;335;48.694;9.120;2023-12-28T11:50:59;1.20;;;0.93;;
703;SDS011;335;48.694;9.120;2023-12-28T11:53:25;1.00;;;0.70;;
703;SDS011;335;48.694;9.120;2023-12-28T11:55:51;1.53;;;1.20;;
703;SDS011;335;48.694;9.120;2023-12-28T11:58:17;0.93;;;0.93;;
703;SDS011;335;48.694;9.120;2023-12-28T12:00:43;1.20;;;1.20;;
703;SDS011;335;48.694;9.120;2023-12-28T12:03:12;1.07;;;0.93;;
703;SDS011;335;48.694;9.120;2023-12-28T12:05:38;0.93;;;0.90;;
703;SDS011;335;48.694;9.120;2023-12-28T12:08:06;1.07;;;1.03;;
703;SDS011;335;48.694;9.120;2023-12-28T12:10:38;1.13;;;1.13;;
703;SDS011;335;48.694;9.120;2023-12-28T12:13:04;1.03;;;1.03;;
703;SDS011;335;48.694;9.120;2023-12-28T12:15:29;2.40;;;1.23;;
703;SDS011;335;48.694;9.120;2023-12-28T12:17:55;1.10;;;1.10;;
703;SDS011;335;48.694;9.120;2023-12-28T12:20:20;1.40;;;1.20;;
703;SDS011;335;48.694;9.120;2023-12-28T12:22:46;1.10;;;1.00;;
703;SDS011;335;48.694;9.120;2023-12-28T12:25:12;1.43;;;1.43;;
703;SDS011;335;48.694;9.120;2023-12-28T12:27:37;1.07;;;1.07;;
703;SDS011;335;48.694;9.120;2023-12-28T12:30:05;1.63;;;1.57;;
703;SDS011;335;48.694;9.120;2023-12-28T12:32:31;1.00;;;1.00;;
703;SDS011;335;48.694;9.120;2023-12-28T12:34:57;1.57;;;1.20;;
703;SDS011;335;48.694;9.120;2023-12-28T12:37:22;1.53;;;1.10;;
703;SDS011;335;48.694;9.120;2023-12-28T12:39:48;2.00;;;0.87;;
703;SDS011;335;48.694;9.120;2023-12-28T12:42:14;1.33;;;0.93;;
703;SDS011;335;48.694;9.120;2023-12-28T12:44:39;1.83;;;1.10;;
703;SDS011;335;48.694;9.120;2023-12-28T12:47:05;0.97;;;0.97;;
703;SDS011;335;48.694;9.120;2023-12-28T12:49:31;1.20;;;1.20;;
703;SDS011;335;48.694;9.120;2023-12-28T12:51:56;1.80;;;1.10;;
703;SDS011;335;48.694;9.120;2023-12-28T12:54:22;1.00;;;1.00;;
703;SDS011;335;48.694;9.120;2023-12-28T12:56:49;1.27;;;0.90;;
703;SDS011;335;48.694;9.120;2023-12-28T12:59:15;1.93;;;1.83;;
703;SDS011;335;48.694;9.120;2023-12-28T13:01:44;3.43;;;3.17;;
703;SDS011;335;48.694;9.120;2023-12-28T13:04:10;1.23;;;1.13;;
703;SDS011;335;48.694;9.120;2023-12-28T13:06:36;1.30;;;1.20;;
703;SDS011;335;48.694;9.120;2023-12-28T13:09:02;1.60;;;1.20;;
703;SDS011;335;48.694;9.120;2023-12-28T13:11:28;1.60;;;1.50;;
703;SDS011;335;48.694;9.120;2023-12-28T13:13:53;3.20;;;2.23;;
703;SDS011;335;48.694;9.120;2023-12-28T13:16:18;4.97;;;4.13;;
703;SDS011;335;48.694;9.120;2023-12-28T13:18:44;3.57;;;3.30;;
703;SDS011;335;48.694;9.120;2023-12-28T13:21:09;1.47;;;1.40;;
703;SDS011;335;48.694;9.120;2023-12-28T13:23:34;1.97;;;1.00;;
703;SDS011;335;48.694;9.120;2023-12-28T13:26:00;1.37;;;1.37;;
703;SDS011;335;48.694;9.120;2023-12-28T13:28:25;0.90;;;0.90;;
703;SDS011;335;48.694;9.120;2023-12-28T13:30:50;1.27;;;1.27;;
703;SDS011;335;48.694;9.120;2023-12-28T13:33:20;1.27;;;1.13;;
703;SDS011;335;48.694;9.120;2023-12-28T13:35:45;2.03;;;1.13;;
703;SDS011;335;48.694;9.120;2023-12-28T13:38:11;1.40;;;1.30;;
703;SDS011;335;48.694;9.120;2023-12-28T13:40:36;1.73;;;1.63;;
703;SDS011;335;48.694;9.120;2023-12-28T13:43:01;1.60;;;1.50;;
703;SDS011;335;48.694;9.120;2023-12-28T13:45:27;1.00;;;1.00;;
703;SDS011;335;48.694;9.120;2023-12-28T13:47:52;2.00;;;1.33;;
703;SDS011;335;48.694;9.120;2023-12-28T13:50:17;1.10;;;1.00;;
703;SDS011;335;48.694;9.120;2023-12-28T13:52:44;2.00;;;1.30;;
703;SDS011;335;48.694;9.120;2023-12-28T13:55:13;1.00;;;1.00;;
703;SDS011;335;48.694;9.120;2023-12-28T13:57:38;1.10;;;1.00;;
703;SDS011;335;48.694;9.120;2023-12-28T14:00:04;1.33;;;1.20;;
703;SDS011;335;48.694;9.120;2023-12-28T14:02:30;1.90;;;1.50;;
703;SDS011;335;48.694;9.120;2023-12-28T14:04:55;1.20;;;1.10;;
703;SDS011;335;48.694;9.120;2023-12-28T14:07:24;1.30;;;1.20;;
703;SDS011;335;48.694;9.120;2023-12-28T14:09:50;1.33;;;1.20;;
703;SDS011;335;48.694;9.120;2023-12-28T14:12:16;1.30;;;1.17;;
703;SDS011;335;48.694;9.120;2023-12-28T14:14:41;0.70;;;0.70;;
703;SDS011;335;48.694;9.120;2023-12-28T14:17:06;0.87;;;0.87;;
703;SDS011;335;48.694;9.120;2023-12-28T14:19:32;1.40;;;1.30;;
703;SDS011;335;48.694;9.120;2023-12-28T14:21:57;1.27;;;1.17;;
703;SDS011;335;48.694;9.120;2023-12-28T14:24:23;2.87;;;0.80;;
703;SDS011;335;48.694;9.120;2023-12-28T14:26:50;1.13;;;1.10;;
703;SDS011;335;48.694;9.120;2023-12-28T14:29:18;1.73;;;1.20;;
703;SDS011;335;48.694;9.120;2023-12-28T14:31:44;1.80;;;1.70;;
703;SDS011;335;48.694;9.120;2023-12-28T14:34:10;1.20;;;1.20;;
703;SDS011;335;48.694;9.120;2023-12-28T14:36:36;1.30;;;1.20;;
703;SDS011;335;48.694;9.120;2023-12-28T14:39:08;1.50;;;1.40;;
703;SDS011;335;48.694;9.120;2023-12-28T14:41:34;1.30;;;1.20;;
703;SDS011;335;48.694;9.120;2023-12-28T14:44:00;1.00;;;0.90;;
703;SDS011;335;48.694;9.120;2023-12-28T14:46:26;1.50;;;1.40;;
703;SDS011;335;48.694;9.120;2023-12-28T14:48:52;1.60;;;1.50;;
703;SDS011;335;48.694;9.120;2023-12-28T14:51:17;1.73;;;1.20;;
703;SDS011;335;48.694;9.120;2023-12-28T14:53:43;1.53;;;1.37;;
703;SDS011;335;48.694;9.120;2023-12-28T14:56:08;1.70;;;1.60;;
703;SDS011;335;48.694;9.120;2023-12-28T14:58:33;2.43;;;2.27;;
703;SDS011;335;48.694;9.120;2023-12-28T15:00:59;3.27;;;2.80;;
703;SDS011;335;48.694;9.120;2023-12-28T15:03:24;3.80;;;3.50;;
703;SDS011;335;48.694;9.120;2023-12-28T15:05:50;3.47;;;3.17;;
703;SDS011;335;48.694;9.120;2023-12-28T15:08:16;1.70;;;1.60;;
703;SDS011;335;48.694;9.120;2023-12-28T15:10:42;2.50;;;1.50;;
703;SDS011;335;48.694;9.120;2023-12-28T15:13:07;1.70;;;1.60;;
703;SDS011;335;48.694;9.120;2023-12-28T15:15:33;2.87;;;2.40;;
703;SDS011;335;48.694;9.120;2023-12-28T15:17:59;2.40;;;2.20;;
703;SDS011;335;48.694;9.120;2023-12-28T15:20:24;2.23;;;2.13;;
703;SDS011;335;48.694;9.120;2023-12-28T15:22:51;1.87;;;1.73;;
703;SDS011;335;48.694;9.120;2023-12-28T15:25:17;2.93;;;2.10;;
703;SDS011;335;48.694;9.120;2023-12-28T15:27:43;2.50;;;2.37;;
703;SDS011;335;48.694;9.120;2023-12-28T15:30:08;2.30;;;2.20;;
703;SDS011;335;48.694;9.120;2023-12-28T15:32:34;1.87;;;1.77;;
703;SDS011;335;48.694;9.120;2023-12-28T15:34:59;1.80;;;1.67;;
703;SDS011;335;48.694;9.120;2023-12-28T15:37:26;2.43;;;2.23;;
703;SDS011;335;48.694;9.120;2023-12-28T15:39:52;2.00;;;1.90;;
703;SDS011;335;48.694;9.120;2023-12-28T15:42:17;2.73;;;2.63;;
703;SDS011;335;48.694;9.120;2023-12-28T15:44:42;1.63;;;1.57;;